Time;durP1;ratioP1;P1;durP2;ratioP2;P2;SDS_P1;SDS_P2;PMS_P1;PMS_P2;Temp;Humidity;BMP_temperature;BMP_pressure;BME280_temperature;BME280_humidity;BME280_pressure;Samples;Min_cycle;Max_cycle;Signal;HPM_P1;HPM_P2
2022/06/12 00:00:29;;;;;;;5.25;4.80;;;;;;;19.62;78.33;98945.16;5033194;28;20095;-92
2022/06/12 00:02:56;;;;;;;13.50;5.30;;;;;;;19.01;78.28;98848.84;5033258;28;20572;-91
2022/06/12 00:05:24;;;;;;;5.57;5.07;;;;;;;18.84;78.07;98832.06;5033339;28;20029;-90
2022/06/12 00:07:50;;;;;;;6.38;5.70;;;;;;;18.54;77.93;98765.59;5034411;28;20025;-91
2022/06/12 00:10:15;;;;;;;6.63;5.38;;;;;;;18.93;78.25;98849.31;5032859;28;20025;-90
2022/06/12 00:12:43;;;;;;;6.57;5.38;;;;;;;19.57;77.96;98929.84;5032803;28;20121;-90
2022/06/12 00:15:11;;;;;;;5.80;5.30;;;;;;;18.82;77.93;98818.13;5032944;28;20085;-90
2022/06/12 00:17:38;;;;;;;5.72;5.30;;;;;;;18.96;78.04;98875.56;5033155;28;20021;-90
2022/06/12 00:20:05;;;;;;;6.00;5.10;;;;;;;19.05;78.00;98867.91;5032987;28;20104;-91
2022/06/12 00:22:30;;;;;;;5.50;5.00;;;;;;;18.77;78.16;98833.31;5032798;28;20040;-91
2022/06/12 00:24:56;;;;;;;5.97;5.35;;;;;;;18.16;78.03;98726.34;5032759;28;20494;-91
2022/06/12 00:27:22;;;;;;;8.68;5.50;;;;;;;19.08;78.13;98882.66;5032846;28;20021;-91
2022/06/12 00:29:48;;;;;;;6.13;5.53;;;;;;;19.20;78.14;98894.03;5033873;28;20105;-91
2022/06/12 00:32:15;;;;;;;7.47;6.40;;;;;;;19.45;78.58;98926.47;5033127;28;20108;-92
2022/06/12 00:34:53;;;;;;;6.68;5.78;;;;;;;19.24;78.43;98905.84;5033924;28;20031;-91
2022/06/12 00:37:21;;;;;;;7.43;5.57;;;;;;;19.16;78.41;98888.38;5035388;28;20025;-91
2022/06/12 00:39:50;;;;;;;6.75;5.85;;;;;;;18.00;78.19;98703.16;5036135;28;20021;-92
2022/06/12 00:42:26;;;;;;;7.32;6.28;;;;;;;19.22;78.21;98900.75;5040042;28;20082;-92
2022/06/12 00:44:54;;;;;;;6.85;5.45;;;;;;;19.48;78.33;98954.63;5053946;28;20025;-90
2022/06/12 00:47:21;;;;;;;6.35;5.75;;;;;;;19.48;78.15;98946.59;5052946;28;20029;-93
2022/06/12 00:50:04;;;;;;;6.18;5.10;;;;;;;19.44;78.32;98943.59;5040677;28;20538;-92
2022/06/12 00:52:39;;;;;;;6.57;5.70;;;;;;;19.39;78.33;98924.00;5035872;28;20022;-91
2022/06/12 00:55:24;;;;;;;6.57;5.93;;;;;;;19.30;78.25;98953.03;5036547;28;20075;-92
2022/06/12 00:57:56;;;;;;;7.30;5.57;;;;;;;19.42;78.36;98945.72;5035259;28;20036;-91
2022/06/12 01:00:22;;;;;;;5.72;5.22;;;;;;;19.46;78.22;98962.09;5033510;28;20037;-92
2022/06/12 01:02:48;;;;;;;5.85;5.25;;;;;;;18.88;78.50;98870.63;5032281;28;20064;-91
2022/06/12 01:08:03;;;;;;;6.72;6.13;;;;;;;19.47;78.35;98956.47;5033103;28;20540;-92
2022/06/12 01:10:29;;;;;;;6.18;5.53;;;;;;;19.52;78.42;98961.09;5033603;28;20053;-92
2022/06/12 01:13:03;;;;;;;7.45;6.55;;;;;;;19.43;77.70;98946.53;5032259;28;20021;-93
2022/06/12 01:15:36;;;;;;;6.80;6.18;;;;;;;19.46;78.27;98956.72;5032676;28;20021;-91
2022/06/12 01:18:05;;;;;;;8.10;6.53;;;;;;;18.84;77.98;98900.81;5031986;28;20021;-92
2022/06/12 01:20:37;;;;;;;7.28;6.38;;;;;;;18.44;78.39;98826.94;5032123;28;20411;-93
2022/06/12 01:23:27;;;;;;;7.28;6.68;;;;;;;19.28;78.46;98942.56;5055164;28;20020;-91
2022/06/12 01:26:20;;;;;;;7.47;6.47;;;;;;;19.40;78.67;98958.53;5057501;28;20112;-92
2022/06/12 01:28:54;;;;;;;7.07;6.40;;;;;;;19.28;78.66;98937.22;5040234;28;20490;-92
2022/06/12 01:31:48;;;;;;;7.43;6.72;;;;;;;19.34;78.92;98954.19;5036907;28;20121;-93
2022/06/12 01:34:37;;;;;;;8.05;7.35;;;;;;;18.84;78.71;98885.56;5036184;28;20025;-93
2022/06/12 01:37:27;;;;;;;7.63;6.93;;;;;;;19.28;78.94;98950.59;5035428;28;20029;-94
2022/06/12 01:39:59;;;;;;;7.43;6.72;;;;;;;18.99;79.25;98919.72;5032107;28;20036;-95
2022/06/12 01:42:57;;;;;;;8.20;7.22;;;;;;;19.23;79.39;98957.75;5032476;28;20025;-93
2022/06/12 01:45:43;;;;;;;7.03;6.32;;;;;;;18.57;79.77;98852.50;5035716;28;20044;-95
2022/06/12 01:48:28;;;;;;;7.40;6.70;;;;;;;19.15;79.88;98960.88;5032647;28;20022;-93
2022/06/12 01:51:27;;;;;;;6.63;6.03;;;;;;;19.15;79.84;98950.16;5032004;28;20017;-93
2022/06/12 01:54:11;;;;;;;6.93;6.32;;;;;;;19.14;79.87;98951.22;5031805;28;20083;-92
2022/06/12 01:56:40;;;;;;;7.38;6.68;;;;;;;19.18;79.69;98958.50;5032627;28;20045;-93
2022/06/12 01:59:28;;;;;;;6.90;6.22;;;;;;;18.92;79.70;98905.72;5032669;28;20029;-92
2022/06/12 02:02:34;;;;;;;6.80;6.10;;;;;;;18.92;79.70;98895.84;5032651;28;20032;-94
2022/06/12 02:05:24;;;;;;;6.88;6.28;;;;;;;19.33;79.66;98953.38;5032111;28;20068;-93
2022/06/12 02:07:57;;;;;;;6.90;6.30;;;;;;;19.41;79.62;98964.72;5031518;28;20035;-94
2022/06/12 02:13:11;;;;;;;6.85;6.15;;;;;;;18.84;79.22;98858.81;5033833;28;20116;-95
2022/06/12 02:13:47;;;;;;;7.97;6.53;;;;;;;19.42;79.53;98971.69;5048579;28;20025;-94
2022/06/12 02:16:18;;;;;;;7.95;6.00;;;;;;;19.50;79.53;98953.31;5049387;28;20017;-94
2022/06/12 02:18:50;;;;;;;6.93;5.57;;;;;;;17.23;79.50;98631.78;5039805;28;20055;-95
2022/06/12 02:21:41;;;;;;;7.95;5.78;;;;;;;19.52;79.67;98951.22;5037426;28;20037;-94
2022/06/12 02:24:20;;;;;;;7.30;6.00;;;;;;;18.83;79.71;98840.34;5036331;28;20060;-95
2022/06/12 02:26:58;;;;;;;7.13;6.20;;;;;;;19.51;79.81;98960.28;5036311;28;20030;-95
2022/06/12 02:29:29;;;;;;;5.93;5.32;;;;;;;19.14;79.57;98906.53;5035781;28;20029;-94
2022/06/12 02:31:55;;;;;;;5.07;4.60;;;;;;;19.42;79.67;98951.06;5036075;28;20120;-94
2022/06/12 02:34:27;;;;;;;5.13;4.63;;;;;;;18.94;79.63;98874.19;5035934;28;20517;-95
2022/06/12 02:37:02;;;;;;;4.95;4.43;;;;;;;19.49;79.53;98948.19;5036796;28;20546;-94
2022/06/12 02:39:39;;;;;;;4.72;4.32;;;;;;;19.10;79.41;98908.09;5041965;28;20033;-95
2022/06/12 02:42:11;;;;;;;5.63;5.13;;;;;;;19.44;79.51;98951.63;5035437;28;20036;-93
2022/06/12 02:44:39;;;;;;;4.68;4.00;;;;;;;19.41;79.78;98951.31;5035291;28;20033;-94
2022/06/12 02:47:14;;;;;;;5.40;4.90;;;;;;;18.76;79.72;98871.81;5034992;28;20033;-92
2022/06/12 02:49:43;;;;;;;5.20;4.70;;;;;;;18.91;79.70;98896.09;5035319;28;20028;-95
2022/06/12 02:52:44;;;;;;;5.10;4.70;;;;;;;19.28;79.50;98939.91;5035889;28;20061;-94
2022/06/12 02:55:34;;;;;;;5.45;4.63;;;;;;;19.14;79.83;98921.78;5031435;28;20041;-94
2022/06/12 02:58:29;;;;;;;5.10;4.70;;;;;;;19.44;79.79;98970.38;5035779;28;20036;-94
2022/06/12 03:01:08;;;;;;;5.82;4.47;;;;;;;19.22;79.66;98945.44;5039131;28;20052;-94
2022/06/12 03:03:59;;;;;;;4.60;4.18;;;;;;;19.39;79.77;98959.59;5038612;28;20026;-95
2022/06/12 03:06:26;;;;;;;4.38;3.97;;;;;;;19.40;79.85;98949.69;5038602;28;20086;-94
2022/06/12 03:08:56;;;;;;;4.78;4.38;;;;;;;19.44;80.12;98953.50;5039379;28;20037;-94
2022/06/12 03:11:29;;;;;;;4.05;3.70;;;;;;;19.43;79.68;98949.19;5038768;28;20099;-94
2022/06/12 03:13:57;;;;;;;4.35;3.97;;;;;;;19.18;79.64;98907.66;5040371;28;20117;-94
2022/06/12 03:16:32;;;;;;;4.50;4.10;;;;;;;19.42;79.47;98953.75;5034443;28;20025;-93
2022/06/12 03:19:09;;;;;;;4.28;3.88;;;;;;;19.43;79.41;98955.38;5034266;28;20505;-93
2022/06/12 03:21:58;;;;;;;4.25;3.85;;;;;;;19.42;79.55;98953.75;5035288;28;20029;-92
2022/06/12 03:24:42;;;;;;;4.05;3.72;;;;;;;18.70;79.48;98847.69;5033979;28;20024;-93
2022/06/12 03:27:10;;;;;;;3.63;3.33;;;;;;;19.44;79.44;98942.78;5034049;28;20056;-95
2022/06/12 03:29:38;;;;;;;4.32;4.03;;;;;;;19.46;79.35;98956.72;5034872;28;20033;-91
2022/06/12 03:32:09;;;;;;;4.60;3.78;;;;;;;18.91;79.18;98910.25;5034882;28;20037;-93
2022/06/12 03:34:48;;;;;;;4.88;3.83;;;;;;;19.44;79.42;98945.47;5034368;28;20091;-92
2022/06/12 03:37:19;;;;;;;5.00;4.55;;;;;;;19.12;79.52;98902.50;5033986;28;20037;-93
2022/06/12 03:40:26;;;;;;;5.00;4.60;;;;;;;19.40;79.75;98953.19;5035261;28;20021;-94
2022/06/12 03:43:03;;;;;;;4.72;4.32;;;;;;;19.33;79.74;98950.69;5028995;28;20037;-92
2022/06/12 03:45:47;;;;;;;7.30;5.03;;;;;;;18.84;79.90;98874.88;5034556;28;20025;-93
2022/06/12 03:48:31;;;;;;;6.22;4.80;;;;;;;19.00;80.02;98921.34;5034037;28;20033;-93
2022/06/12 03:51:13;;;;;;;5.70;4.95;;;;;;;19.29;80.15;98954.91;5034444;28;20483;-92
2022/06/12 03:53:53;;;;;;;6.43;5.05;;;;;;;19.28;80.32;98960.50;5033973;28;20509;-92
2022/06/12 03:59:52;;;;;;;5.60;5.10;;;;;;;18.71;80.04;98897.44;5034661;28;20114;-91
2022/06/12 04:02:22;;;;;;;6.20;5.60;;;;;;;19.31;79.95;98971.53;5033815;28;20089;-93
2022/06/12 04:04:49;;;;;;;6.55;5.45;;;;;;;19.05;79.89;98926.75;5033699;28;20033;-91
2022/06/12 04:07:17;;;;;;;6.18;5.25;;;;;;;18.73;79.85;98910.56;5033229;28;20026;-93
2022/06/12 04:09:46;;;;;;;6.53;5.93;;;;;;;19.27;79.94;98961.56;5033268;28;20044;-91
2022/06/12 04:12:19;;;;;;;6.90;5.68;;;;;;;19.21;80.24;98960.69;5033452;28;20036;-90
2022/06/12 04:14:53;;;;;;;7.07;5.28;;;;;;;19.24;79.88;98967.41;5033178;28;20104;-93
2022/06/12 04:17:21;;;;;;;6.45;5.85;;;;;;;18.91;79.98;98918.28;5034192;28;20108;-93
2022/06/12 04:19:59;;;;;;;6.53;5.70;;;;;;;18.60;80.09;98878.78;5033361;28;20509;-94
2022/06/12 04:23:00;;;;;;;6.43;5.82;;;;;;;18.94;79.99;98939.19;5032938;28;20025;-92
2022/06/12 04:25:30;;;;;;;5.75;5.25;;;;;;;19.18;80.14;98976.44;5033066;28;20037;-93
2022/06/12 04:27:56;;;;;;;6.13;5.53;;;;;;;18.77;80.10;98906.34;5032949;28;20033;-93
2022/06/12 04:30:28;;;;;;;5.90;5.30;;;;;;;19.16;80.07;98975.88;5033991;28;20029;-92
2022/06/12 04:33:15;;;;;;;7.18;6.47;;;;;;;19.16;80.25;98978.53;5032971;28;20025;-92
2022/06/12 04:35:49;;;;;;;6.43;5.93;;;;;;;19.11;80.33;98983.84;5032858;28;20056;-92
2022/06/12 04:38:14;;;;;;;6.63;6.03;;;;;;;18.94;80.27;98959.78;5033819;28;20056;-92
2022/06/12 04:40:40;;;;;;;6.30;5.70;;;;;;;18.28;80.23;98847.28;5032964;28;20037;-93
2022/06/12 04:43:05;;;;;;;6.18;5.68;;;;;;;19.17;80.42;99022.97;5032863;28;20021;-93
2022/06/12 04:45:32;;;;;;;7.45;6.22;;;;;;;18.68;80.21;98907.81;5032424;28;20043;-92
2022/06/12 04:47:58;;;;;;;6.63;6.03;;;;;;;18.69;80.26;98920.13;5032522;28;20025;-92
2022/06/12 04:50:23;;;;;;;6.60;5.97;;;;;;;18.87;80.07;98937.75;5032577;28;20035;-92
2022/06/12 04:52:49;;;;;;;5.50;5.00;;;;;;;19.07;80.15;98963.97;5032529;28;20032;-93
2022/06/12 04:55:14;;;;;;;4.65;4.25;;;;;;;18.67;80.13;98903.50;5032475;28;20104;-93
2022/06/12 04:57:40;;;;;;;5.55;5.05;;;;;;;18.98;79.90;98959.03;5032456;28;20079;-93
2022/06/12 05:00:06;;;;;;;4.60;4.20;;;;;;;19.31;80.08;99003.66;5032260;28;20072;-93
2022/06/12 05:02:32;;;;;;;5.10;4.70;;;;;;;18.07;79.90;98807.97;5032453;28;20033;-94
2022/06/12 05:04:57;;;;;;;4.82;4.43;;;;;;;18.67;80.13;98922.22;5032373;28;20079;-93
2022/06/12 05:07:23;;;;;;;5.43;4.30;;;;;;;19.29;80.04;99003.09;5032410;28;20032;-92
2022/06/12 05:09:49;;;;;;;4.30;3.95;;;;;;;18.71;80.42;98944.75;5032378;28;20037;-92
2022/06/12 05:12:14;;;;;;;4.10;3.70;;;;;;;19.23;80.20;99011.28;5032059;28;20030;-93
2022/06/12 05:14:41;;;;;;;5.97;4.50;;;;;;;19.29;80.18;99015.66;5032937;28;20036;-93
2022/06/12 05:17:12;;;;;;;4.15;3.85;;;;;;;18.94;80.20;98965.94;5033033;28;20025;-93
2022/06/12 05:19:40;;;;;;;4.65;4.32;;;;;;;19.34;80.19;99010.41;5032153;28;20028;-91
2022/06/12 05:22:07;;;;;;;5.47;4.97;;;;;;;18.91;80.04;98944.22;5031967;28;20029;-92
2022/06/12 05:24:35;;;;;;;5.07;4.53;;;;;;;19.40;80.02;99013.94;5031864;28;20033;-92
2022/06/12 05:27:04;;;;;;;5.57;5.07;;;;;;;18.80;79.97;98929.09;5032844;28;20030;-92
2022/06/12 05:29:34;;;;;;;5.88;5.20;;;;;;;19.35;79.82;99007.47;5032780;28;20029;-93
2022/06/12 05:32:00;;;;;;;5.28;4.78;;;;;;;19.47;79.68;99022.63;5032818;28;20116;-92
2022/06/12 05:34:27;;;;;;;5.35;4.85;;;;;;;19.09;79.71;98959.19;5032548;28;20033;-91
2022/06/12 05:36:54;;;;;;;5.95;5.35;;;;;;;19.45;79.67;99022.06;5032783;28;20025;-92
2022/06/12 05:39:20;;;;;;;5.55;5.05;;;;;;;19.13;79.72;98977.19;5031676;28;20116;-91
2022/06/12 05:41:46;;;;;;;5.82;5.22;;;;;;;19.21;79.76;99000.84;5032513;28;20049;-91
2022/06/12 05:44:13;;;;;;;5.82;5.32;;;;;;;19.19;79.74;99000.28;5032624;28;20036;-92
2022/06/12 05:46:39;;;;;;;5.65;5.10;;;;;;;18.96;79.46;98955.81;5032628;28;20029;-92
2022/06/12 05:49:05;;;;;;;5.82;4.85;;;;;;;18.77;79.54;98919.69;5031527;28;20025;-92
2022/06/12 05:51:32;;;;;;;5.13;4.72;;;;;;;18.95;79.60;98940.81;5031459;28;20029;-92
2022/06/12 05:53:57;;;;;;;5.28;4.78;;;;;;;19.55;79.31;99052.47;5031048;28;20026;-92
2022/06/12 05:56:25;;;;;;;6.20;5.63;;;;;;;19.57;79.37;99041.50;5031353;28;20061;-92
2022/06/12 05:58:51;;;;;;;5.05;4.55;;;;;;;19.55;79.50;99044.44;5031411;28;20047;-93
2022/06/12 06:01:19;;;;;;;5.28;4.88;;;;;;;19.43;79.57;99016.94;5032280;28;20538;-93
2022/06/12 06:03:44;;;;;;;5.70;5.20;;;;;;;18.93;79.50;98939.44;5031631;28;20026;-93
2022/06/12 06:06:16;;;;;;;5.63;5.13;;;;;;;19.33;79.79;99008.78;5031406;28;20037;-92
2022/06/12 06:08:42;;;;;;;6.05;5.55;;;;;;;19.08;79.72;98968.28;5032533;28;20033;-92
2022/06/12 06:11:07;;;;;;;6.78;5.07;;;;;;;19.16;79.47;98946.44;5031645;28;20478;-92
2022/06/12 06:13:33;;;;;;;7.88;5.35;;;;;;;19.80;79.66;99045.81;5031742;28;20025;-93
2022/06/12 06:15:59;;;;;;;6.25;5.43;;;;;;;19.82;79.24;99030.28;5031490;28;20025;-93
2022/06/12 06:18:24;;;;;;;5.35;4.95;;;;;;;19.56;79.07;99016.59;5031379;28;20072;-93
2022/06/12 06:20:50;;;;;;;6.43;5.82;;;;;;;19.36;78.78;98927.97;5032402;28;20025;-93
2022/06/12 06:23:16;;;;;;;5.45;4.95;;;;;;;20.07;79.21;99025.25;5031260;28;20060;-92
2022/06/12 06:25:42;;;;;;;5.28;4.78;;;;;;;18.89;78.40;98847.38;5032099;28;20036;-93
2022/06/12 06:28:08;;;;;;;5.10;4.60;;;;;;;19.44;78.24;98962.34;5032459;28;20051;-92
2022/06/12 06:30:35;;;;;;;5.80;5.20;;;;;;;19.76;78.65;99007.19;5032580;28;20502;-94
2022/06/12 06:33:01;;;;;;;5.63;5.13;;;;;;;19.52;78.84;98953.91;5031011;28;20088;-93
2022/06/12 06:35:26;;;;;;;5.30;4.90;;;;;;;19.50;78.64;98961.34;5032137;28;20556;-93
2022/06/12 06:37:53;;;;;;;5.82;5.00;;;;;;;19.99;78.64;99041.75;5031231;28;20022;-92
2022/06/12 06:40:21;;;;;;;5.68;5.15;;;;;;;20.00;78.94;99046.03;5031056;28;20087;-92
2022/06/12 06:42:46;;;;;;;6.22;5.55;;;;;;;18.98;78.95;98894.84;5030848;28;20065;-91
2022/06/12 06:47:58;;;;;;;5.88;5.38;;;;;;;19.55;79.25;98992.75;5031861;28;20032;-93
2022/06/12 06:50:24;;;;;;;6.22;5.63;;;;;;;19.33;79.11;98964.09;5030884;28;20026;-91
2022/06/12 06:52:49;;;;;;;6.28;5.55;;;;;;;19.56;79.30;99016.59;5032072;28;20414;-91
2022/06/12 06:55:15;;;;;;;6.88;6.18;;;;;;;19.83;79.58;99053.34;5030963;28;20053;-92
2022/06/12 06:57:45;;;;;;;6.30;5.75;;;;;;;19.52;79.65;99020.84;5032098;28;20036;-91
2022/06/12 07:00:14;;;;;;;6.45;5.93;;;;;;;19.82;79.53;99057.91;5031866;28;20021;-92
2022/06/12 07:02:41;;;;;;;7.10;6.40;;;;;;;19.26;79.67;98987.53;5030661;28;20030;-91
2022/06/12 07:05:07;;;;;;;6.18;5.57;;;;;;;19.85;79.69;99045.88;5032309;28;20518;-92
2022/06/12 07:07:36;;;;;;;6.13;5.60;;;;;;;19.65;79.93;99030.38;5035510;28;20036;-92
2022/06/12 07:10:04;;;;;;;6.68;6.07;;;;;;;19.74;79.54;99036.91;5034262;28;20048;-91
2022/06/12 07:12:30;;;;;;;7.07;6.47;;;;;;;19.82;79.78;99060.56;5034159;28;20095;-91
2022/06/12 07:14:55;;;;;;;6.63;6.03;;;;;;;19.49;79.61;99017.81;5034099;28;20029;-91
2022/06/12 07:17:21;;;;;;;7.03;6.43;;;;;;;20.05;79.44;99062.19;5034066;28;20041;-91
2022/06/12 07:19:47;;;;;;;6.43;5.82;;;;;;;19.91;79.57;99048.34;5034185;28;20033;-91
2022/06/12 07:22:12;;;;;;;6.70;6.05;;;;;;;19.73;79.56;99018.41;5035337;28;20029;-91
2022/06/12 07:24:38;;;;;;;7.85;7.05;;;;;;;19.49;79.74;98989.19;5034724;28;20025;-91
2022/06/12 07:27:04;;;;;;;7.38;6.72;;;;;;;19.48;79.59;99013.53;5033941;28;20037;-92
2022/06/12 07:29:29;;;;;;;7.03;6.28;;;;;;;19.54;79.75;99002.66;5034056;28;20029;-92
2022/06/12 07:31:55;;;;;;;6.95;6.35;;;;;;;19.51;79.66;98979.03;5033756;28;20029;-91
2022/06/12 07:34:21;;;;;;;6.82;6.15;;;;;;;19.62;79.49;98998.72;5034111;28;20462;-90
2022/06/12 07:36:50;;;;;;;8.02;6.30;;;;;;;19.92;79.24;99038.44;5033679;28;20014;-91
2022/06/12 07:39:24;;;;;;;6.10;5.60;;;;;;;19.79;79.10;99006.69;5033603;28;20103;-90
2022/06/12 07:41:51;;;;;;;6.28;5.68;;;;;;;20.17;79.17;99060.19;5033317;28;20059;-91
2022/06/12 07:44:20;;;;;;;6.63;6.13;;;;;;;20.18;79.10;99061.81;5033553;28;20056;-91
2022/06/12 07:46:47;;;;;;;6.50;5.97;;;;;;;19.16;79.29;98903.63;5033767;28;20478;-90
2022/06/12 07:49:13;;;;;;;7.43;6.72;;;;;;;20.24;79.13;99070.72;5033513;28;20029;-92
2022/06/12 07:51:39;;;;;;;6.68;5.68;;;;;;;20.21;79.31;99071.22;5033171;28;20478;-92
2022/06/12 07:54:05;;;;;;;6.95;6.32;;;;;;;19.87;78.81;99019.63;5033341;28;20040;-91
2022/06/12 07:56:30;;;;;;;8.02;6.13;;;;;;;19.78;78.77;99024.63;5033139;28;20049;-92
2022/06/12 07:58:57;;;;;;;6.45;5.85;;;;;;;19.34;78.80;98956.88;5033827;28;20502;-91
2022/06/12 08:01:26;;;;;;;6.05;5.50;;;;;;;20.21;78.86;99090.78;5033223;28;20025;-91
2022/06/12 08:03:52;;;;;;;6.18;5.60;;;;;;;19.04;78.68;98931.31;5034315;28;20032;-91
2022/06/12 08:06:18;;;;;;;6.90;6.30;;;;;;;20.20;78.83;99089.19;5034143;28;20112;-92
2022/06/12 08:08:44;;;;;;;6.93;6.22;;;;;;;20.00;78.74;99070.16;5032998;28;20083;-92
2022/06/12 08:11:10;;;;;;;6.93;6.40;;;;;;;20.19;78.70;99084.06;5033172;28;20029;-91
2022/06/12 08:13:36;;;;;;;6.72;6.13;;;;;;;20.22;78.84;99096.97;5032969;28;20032;-91
2022/06/12 08:16:02;;;;;;;7.60;7.00;;;;;;;19.49;78.87;98997.22;5032854;28;20026;-92
2022/06/12 08:18:28;;;;;;;7.35;6.75;;;;;;;19.51;78.92;98983.56;5033038;28;20108;-91
2022/06/12 08:21:01;;;;;;;6.55;5.95;;;;;;;20.19;78.95;99092.91;5033963;28;20029;-91
2022/06/12 08:23:49;;;;;;;7.68;6.53;;;;;;;20.02;79.29;99067.22;5033849;28;20025;-91
2022/06/12 08:26:27;;;;;;;7.10;6.50;;;;;;;20.23;79.33;99098.59;5032522;28;20033;-92
2022/06/12 08:29:00;;;;;;;7.10;6.43;;;;;;;20.22;79.38;99094.28;5032922;28;20033;-91
2022/06/12 08:31:40;;;;;;;7.25;6.63;;;;;;;19.61;79.37;99010.50;5032871;28;20033;-91
2022/06/12 08:34:10;;;;;;;8.23;7.47;;;;;;;19.55;79.94;99003.47;5032875;28;20021;-90
2022/06/12 08:36:36;;;;;;;8.00;7.20;;;;;;;19.81;79.86;99042.88;5032355;28;20028;-91
2022/06/12 08:39:04;;;;;;;8.63;7.75;;;;;;;20.23;79.89;99094.03;5033778;28;20029;-90
2022/06/12 08:41:30;;;;;;;7.57;6.97;;;;;;;20.28;79.89;99088.72;5033546;28;20541;-90
2022/06/12 08:44:04;;;;;;;8.27;7.57;;;;;;;19.83;79.67;99018.53;5032378;28;20068;-90
2022/06/12 08:46:37;;;;;;;6.85;6.35;;;;;;;20.36;79.47;99092.81;5033391;28;20087;-90
2022/06/12 08:49:10;;;;;;;7.57;6.80;;;;;;;20.45;79.42;99098.56;5032059;28;20025;-90
2022/06/12 08:51:53;;;;;;;7.40;6.70;;;;;;;20.59;78.97;99084.50;5033324;28;20025;-90
2022/06/12 08:54:26;;;;;;;7.40;6.70;;;;;;;20.69;78.41;99093.69;5032331;28;20029;-90
2022/06/12 08:56:57;;;;;;;7.50;6.80;;;;;;;20.71;78.41;99091.56;5032472;28;20033;-91
2022/06/12 08:59:43;;;;;;;6.22;5.53;;;;;;;20.80;78.10;99093.53;5032028;28;20034;-90
2022/06/12 09:02:22;;;;;;;8.48;5.82;;;;;;;20.43;78.21;99020.25;5032067;28;20028;-91
2022/06/12 09:04:48;;;;;;;6.22;5.63;;;;;;;20.55;77.85;99023.56;5031699;28;20021;-89
2022/06/12 09:07:20;;;;;;;6.57;6.05;;;;;;;20.58;77.16;99012.34;5031888;28;20044;-91
2022/06/12 09:10:09;;;;;;;6.57;6.00;;;;;;;21.06;75.92;99072.28;5031842;28;20051;-90
2022/06/12 09:12:56;;;;;;;5.65;5.15;;;;;;;21.18;75.98;99079.09;5031484;28;20072;-89
2022/06/12 09:15:34;;;;;;;6.45;5.85;;;;;;;20.66;75.54;98987.72;5031662;28;20498;-90
2022/06/12 09:18:16;;;;;;;6.95;6.32;;;;;;;21.47;75.29;99078.75;5031811;28;20024;-89
2022/06/12 09:20:41;;;;;;;;;;;;;;;21.40;75.71;99075.50;5032006;28;20022;-89
2022/06/12 09:23:38;;;;;;;6.38;5.30;;;;;;;21.53;74.45;99073.16;5031527;28;19913;-90
2022/06/12 09:26:51;;;;;;;6.50;5.95;;;;;;;21.51;74.38;99072.59;5031208;28;20469;-89
2022/06/12 09:29:24;;;;;;;6.72;6.13;;;;;;;21.62;74.33;99080.75;5029335;28;20040;-89
2022/06/12 09:32:24;;;;;;;6.07;5.55;;;;;;;21.74;74.22;99095.59;5031855;28;20514;-90
2022/06/12 09:35:04;;;;;;;5.78;5.28;;;;;;;21.68;73.49;99068.94;5028354;28;20041;-90
2022/06/12 09:38:18;;;;;;;6.97;6.38;;;;;;;21.87;73.63;99075.47;5031227;28;20020;-90
2022/06/12 09:41:03;;;;;;;5.72;5.22;;;;;;;21.87;73.10;99081.66;5031213;28;20033;-90
2022/06/12 09:43:53;;;;;;;5.68;5.18;;;;;;;21.50;72.28;99013.78;5032626;28;20060;-90
2022/06/12 09:46:42;;;;;;;5.68;5.18;;;;;;;21.37;72.75;99030.38;5031654;28;20021;-89
2022/06/12 09:49:23;;;;;;;5.55;5.05;;;;;;;21.84;72.57;99078.69;5031429;28;20037;-89
2022/06/12 09:52:10;;;;;;;5.38;4.88;;;;;;;21.90;72.70;99083.03;5031190;28;20120;-90
2022/06/12 09:55:13;;;;;;;6.30;5.18;;;;;;;21.96;72.75;99083.84;5029781;28;20057;-89
2022/06/12 09:58:01;;;;;;;8.00;4.93;;;;;;;22.06;72.54;99082.03;4974942;28;20026;-89
2022/06/12 10:00:38;;;;;;;5.82;5.32;;;;;;;21.47;71.95;98993.63;5027696;28;20025;-89
2022/06/12 10:03:13;;;;;;;4.53;4.22;;;;;;;22.07;72.25;99094.41;5030622;28;20037;-90
2022/06/12 10:05:44;;;;;;;5.15;4.60;;;;;;;22.03;72.59;99087.94;5031802;28;20029;-90
2022/06/12 10:08:12;;;;;;;5.35;4.45;;;;;;;21.99;72.11;99094.88;5030895;28;20596;-89
2022/06/12 10:10:47;;;;;;;5.55;4.10;;;;;;;21.24;71.97;98986.78;5030858;28;20083;-89
2022/06/12 10:13:21;;;;;;;4.60;4.20;;;;;;;21.87;71.94;99087.03;5031774;28;20108;-89
2022/06/12 10:15:52;;;;;;;5.28;4.15;;;;;;;21.37;71.94;99031.16;5030804;28;20045;-90
2022/06/12 10:18:29;;;;;;;5.13;4.37;;;;;;;21.52;72.51;99076.09;5030877;28;20032;-89
2022/06/12 10:21:06;;;;;;;4.47;4.13;;;;;;;21.32;72.53;99049.94;5030964;28;20483;-89
2022/06/12 10:23:32;;;;;;;5.63;4.55;;;;;;;21.34;72.92;99058.53;5031969;28;20029;-89
2022/06/12 10:25:59;;;;;;;4.50;4.10;;;;;;;21.64;72.68;99092.03;5030893;28;20109;-89
2022/06/12 10:28:33;;;;;;;4.45;4.07;;;;;;;21.60;72.62;99089.06;5031135;28;20123;-90
2022/06/12 10:31:09;;;;;;;4.47;4.03;;;;;;;21.51;73.17;99080.66;5030821;28;20018;-89
2022/06/12 10:34:04;;;;;;;5.38;4.72;;;;;;;21.31;73.09;99034.91;5031999;28;20029;-90
2022/06/12 10:36:32;;;;;;;4.50;4.10;;;;;;;21.32;73.31;99041.06;5030990;28;20105;-90
2022/06/12 10:39:03;;;;;;;5.00;4.50;;;;;;;21.60;73.23;99064.88;5031159;28;20025;-90
2022/06/12 10:41:31;;;;;;;5.30;4.80;;;;;;;20.80;73.53;98948.66;5033733;28;20025;-90
2022/06/12 10:43:57;;;;;;;4.88;4.43;;;;;;;21.04;74.04;98970.56;5034751;28;20094;-88
2022/06/12 10:46:30;;;;;;;5.60;5.10;;;;;;;21.65;74.04;99058.72;5034542;28;20036;-90
2022/06/12 10:49:03;;;;;;;5.15;4.65;;;;;;;21.48;74.21;99026.66;5035680;28;20508;-90
2022/06/12 10:51:34;;;;;;;4.68;4.22;;;;;;;21.70;74.32;99056.88;5034669;28;20026;-91
2022/06/12 10:54:08;;;;;;;4.85;4.45;;;;;;;21.53;74.48;99040.91;5034373;28;20032;-90
2022/06/12 10:56:39;;;;;;;5.32;4.93;;;;;;;21.77;74.25;99062.00;5034960;28;20046;-90
2022/06/12 10:59:08;;;;;;;;;;;;;;;21.71;74.44;99057.69;5036532;28;20032;-89
2022/06/12 11:02:12;;;;;;;4.60;4.20;;;;;;;21.79;73.89;99060.66;5036118;28;19947;-91
2022/06/12 11:04:46;;;;;;;6.35;4.65;;;;;;;21.68;73.74;99055.53;5034372;28;20039;-89
2022/06/12 11:07:28;;;;;;;5.30;4.80;;;;;;;21.69;73.87;99060.63;5035353;28;20030;-89
2022/06/12 11:09:54;;;;;;;5.25;4.82;;;;;;;21.73;73.73;99050.16;5035150;28;20533;-90
2022/06/12 11:12:34;;;;;;;6.03;4.80;;;;;;;21.75;73.31;99054.22;5035249;28;20021;-89
2022/06/12 11:15:13;;;;;;;5.18;4.43;;;;;;;21.78;73.29;99050.19;5033794;28;20082;-90
2022/06/12 11:17:59;;;;;;;4.88;4.45;;;;;;;21.79;73.24;99044.56;5035157;28;20044;-90
2022/06/12 11:20:43;;;;;;;6.13;4.80;;;;;;;21.96;72.99;99046.22;5034028;28;20059;-89
2022/06/12 11:23:20;;;;;;;5.07;4.47;;;;;;;22.17;72.56;99046.03;5035280;28;20022;-89
2022/06/12 11:25:54;;;;;;;6.05;4.97;;;;;;;22.19;71.46;99043.88;5033303;28;20026;-90
2022/06/12 11:28:47;;;;;;;6.20;4.55;;;;;;;22.38;70.87;99060.34;5033899;28;20430;-89
2022/06/12 11:31:37;;;;;;;5.28;4.70;;;;;;;22.49;70.15;99039.66;5035071;28;20032;-89
2022/06/12 11:34:27;;;;;;;5.07;4.45;;;;;;;22.58;69.62;99043.44;5041477;28;20511;-89
2022/06/12 11:37:23;;;;;;;5.45;4.38;;;;;;;22.71;68.65;99066.31;5054519;28;20011;-89
2022/06/12 11:40:16;;;;;;;5.47;4.20;;;;;;;23.08;68.39;99049.91;5045156;28;20029;-88
2022/06/12 11:43:10;;;;;;;5.13;4.30;;;;;;;23.65;67.16;99060.31;5033326;28;20033;-88
2022/06/12 11:46:02;;;;;;;4.53;4.13;;;;;;;23.56;66.35;98977.59;5034727;28;20098;-88
2022/06/12 11:48:43;;;;;;;4.57;4.07;;;;;;;24.47;64.30;99033.75;5033252;28;20025;-88
2022/06/12 11:51:27;;;;;;;7.07;4.47;;;;;;;24.18;62.70;98965.41;5032767;28;20028;-90
2022/06/12 11:54:04;;;;;;;5.85;4.18;;;;;;;24.84;62.44;99038.59;5033031;28;20025;-87
2022/06/12 11:56:48;;;;;;;4.18;3.78;;;;;;;25.03;61.82;99050.34;5032648;28;20046;-88
2022/06/12 11:59:38;;;;;;;5.68;4.13;;;;;;;24.78;60.91;99047.03;5033452;28;20078;-88
2022/06/12 12:02:16;;;;;;;3.97;3.55;;;;;;;24.49;60.99;99055.88;5034673;28;20084;-89
2022/06/12 12:04:48;;;;;;;4.78;4.07;;;;;;;23.97;61.74;98981.72;5035533;28;20021;-89
2022/06/12 12:07:42;;;;;;;8.15;4.30;;;;;;;23.90;62.14;99007.38;5035322;28;20037;-90
2022/06/12 12:10:38;;;;;;;4.35;3.60;;;;;;;24.07;61.67;99041.00;5035372;28;20032;-90
2022/06/12 12:13:09;;;;;;;4.78;4.15;;;;;;;23.86;62.95;99031.41;5034441;28;20029;-89
2022/06/12 12:15:45;;;;;;;4.78;4.13;;;;;;;23.73;62.98;99026.59;5033049;28;20032;-89